Airfield :
LOGIN :

Register | Disclaimer

   EN    FR    IT 

 










Legend :    VFR   Marginal VFR   IFR   Intensive IFR   Very Intensive IFR
Visi :
Ceiling :
>= 8 km
>= 3000ft
5 to 8 km
1000 to 3000 ft
1500m to 5 km
500 to 1000 ft
800 to 1500m
200 to 500 ft
< 800m
< 200 ft
Symbols :   Thunderstorms  Fog  Heavy snow  Heavy precipitations  Wind > 20 kt
SIGMETs :     Misc.  Thunderstorms  Icing  Turbulence  Mountain Waves  Volcanic Ashes







- Airport Elevation : 1830 ft


EBLB - Butgenbach Elsenborn

CURRENT METAR :
  • 132155Z AUTO 08005KT 9999 OVC020/// M03/M07 Q1017 WHT

EXPIRED METARs :
  • 132125Z AUTO 09005KT 9999 OVC019/// M03/M07 Q1017 WHT
  • 132055Z AUTO 08005KT 9999 BKN019/// M03/M07 Q1017 WHT
  • 132025Z AUTO 08007KT 9999 OVC020/// M03/M07 Q1016 WHT
  • 131955Z AUTO 08006KT 9999 OVC021/// M03/M06 Q1016 WHT
  • 131925Z AUTO 07005KT 9999 BKN022/// M03/M06 Q1016 WHT

Expired Forecast.
No reported NOTAMs for that airfield.



MET'MAP, your aeronautical weather chart ! - Copyright ORBIFLY December 2007 - Disclaimer

ORBIFLY MET'MAP TEAM :

Programming & Development : Alexandra Zaïnal
Concept & Development : Baudouin d'Aumeries
Co-Development & Prog : Marc-Olivier Méhu
Technical & hardware support : Manuel Goepfert

Contact : metmap@orbifly.com




SOURCES & CREDITS :

   NOAA